sensor_id;sensor_type;location;lat;lon;timestamp;P1;durP1;ratioP1;P2;durP2;ratioP2
18471;SDS011;9365;48.258;12.518;2022-08-03T00:02:26;2.9699999999999998;;;2.28;;
18471;SDS011;9365;48.258;12.518;2022-08-03T00:07:53;4.010000000000001;;;2.4599999999999995;;
18471;SDS011;9365;48.258;12.518;2022-08-03T00:13:21;3.72;;;2.51;;
18471;SDS011;9365;48.258;12.518;2022-08-03T00:18:49;4.45;;;2.5599999999999996;;
18471;SDS011;9365;48.258;12.518;2022-08-03T00:24:16;7.140000000000001;;;2.7600000000000002;;
18471;SDS011;9365;48.258;12.518;2022-08-03T00:29:44;4.95;;;2.19;;
18471;SDS011;9365;48.258;12.518;2022-08-03T00:35:11;3.3;;;2.7300000000000004;;
18471;SDS011;9365;48.258;12.518;2022-08-03T00:40:39;7.6800000000000015;;;2.68;;
18471;SDS011;9365;48.258;12.518;2022-08-03T00:46:07;4.61;;;2.54;;
18471;SDS011;9365;48.258;12.518;2022-08-03T00:51:34;2.6;;;2.17;;
18471;SDS011;9365;48.258;12.518;2022-08-03T00:57:02;3.3600000000000003;;;2.54;;
18471;SDS011;9365;48.258;12.518;2022-08-03T01:02:30;5.33;;;2.84;;
18471;SDS011;9365;48.258;12.518;2022-08-03T01:08:00;2.9899999999999998;;;2.71;;
18471;SDS011;9365;48.258;12.518;2022-08-03T01:13:33;2.76;;;2.4800000000000004;;
18471;SDS011;9365;48.258;12.518;2022-08-03T01:19:05;5.14;;;2.41;;
18471;SDS011;9365;48.258;12.518;2022-08-03T01:24:47;2.45;;;2.16;;
18471;SDS011;9365;48.258;12.518;2022-08-03T01:30:16;3.1599999999999997;;;2.5100000000000002;;
18471;SDS011;9365;48.258;12.518;2022-08-03T01:35:46;6.04;;;3.6699999999999995;;
18471;SDS011;9365;48.258;12.518;2022-08-03T01:41:16;4.14;;;3.3299999999999996;;
18471;SDS011;9365;48.258;12.518;2022-08-03T01:46:44;7.75;;;3.88;;
18471;SDS011;9365;48.258;12.518;2022-08-03T01:52:12;6.92;;;3.1999999999999997;;
18471;SDS011;9365;48.258;12.518;2022-08-03T01:57:43;6.5;;;3.59;;
18471;SDS011;9365;48.258;12.518;2022-08-03T02:03:11;8.17;;;3.4;;
18471;SDS011;9365;48.258;12.518;2022-08-03T02:08:39;6.17;;;3.0300000000000002;;
18471;SDS011;9365;48.258;12.518;2022-08-03T02:14:08;4.1;;;2.95;;
18471;SDS011;9365;48.258;12.518;2022-08-03T02:19:36;3.88;;;3.09;;
18471;SDS011;9365;48.258;12.518;2022-08-03T02:25:04;5.93;;;2.94;;
18471;SDS011;9365;48.258;12.518;2022-08-03T02:30:33;5.3;;;2.91;;
18471;SDS011;9365;48.258;12.518;2022-08-03T02:36:01;7.45;;;3.6100000000000003;;
18471;SDS011;9365;48.258;12.518;2022-08-03T02:41:31;5.14;;;3.47;;
18471;SDS011;9365;48.258;12.518;2022-08-03T02:47:00;6.44;;;3.6100000000000003;;
18471;SDS011;9365;48.258;12.518;2022-08-03T02:52:28;6.6899999999999995;;;3.6900000000000004;;
18471;SDS011;9365;48.258;12.518;2022-08-03T02:57:57;4.4799999999999995;;;3.6;;
18471;SDS011;9365;48.258;12.518;2022-08-03T03:03:24;10.09;;;3.71;;
18471;SDS011;9365;48.258;12.518;2022-08-03T03:08:52;5.390000000000001;;;3.1100000000000003;;
18471;SDS011;9365;48.258;12.518;2022-08-03T03:14:20;7.13;;;3.44;;
18471;SDS011;9365;48.258;12.518;2022-08-03T03:19:48;5.49;;;3.2300000000000004;;
18471;SDS011;9365;48.258;12.518;2022-08-03T03:25:16;7.029999999999999;;;3.2199999999999998;;
18471;SDS011;9365;48.258;12.518;2022-08-03T03:30:44;4.7299999999999995;;;3.3;;
18471;SDS011;9365;48.258;12.518;2022-08-03T03:36:11;5.58;;;3.14;;
18471;SDS011;9365;48.258;12.518;2022-08-03T03:41:39;7.630000000000001;;;3.2399999999999998;;
18471;SDS011;9365;48.258;12.518;2022-08-03T03:47:06;9.19;;;3.5799999999999996;;
18471;SDS011;9365;48.258;12.518;2022-08-03T03:52:34;6.31;;;3.04;;
18471;SDS011;9365;48.258;12.518;2022-08-03T03:58:03;8.06;;;3.17;;
18471;SDS011;9365;48.258;12.518;2022-08-03T04:03:30;7.12;;;3.1900000000000004;;
18471;SDS011;9365;48.258;12.518;2022-08-03T04:08:58;4.08;;;2.94;;
18471;SDS011;9365;48.258;12.518;2022-08-03T04:14:27;7.2700000000000005;;;3.2699999999999996;;
18471;SDS011;9365;48.258;12.518;2022-08-03T04:19:55;6.63;;;2.89;;
18471;SDS011;9365;48.258;12.518;2022-08-03T04:25:25;5.23;;;2.9;;
18471;SDS011;9365;48.258;12.518;2022-08-03T04:30:54;7.109999999999999;;;4.02;;
18471;SDS011;9365;48.258;12.518;2022-08-03T04:36:26;5.71;;;3.44;;
18471;SDS011;9365;48.258;12.518;2022-08-03T04:41:59;7.090000000000001;;;3.7299999999999995;;
18471;SDS011;9365;48.258;12.518;2022-08-03T04:47:28;6.789999999999999;;;3.5;;
18471;SDS011;9365;48.258;12.518;2022-08-03T04:52:56;5.96;;;3.8299999999999996;;
18471;SDS011;9365;48.258;12.518;2022-08-03T04:58:23;5.84;;;3.34;;
18471;SDS011;9365;48.258;12.518;2022-08-03T05:03:51;4.369999999999999;;;3.349999999999999;;
18471;SDS011;9365;48.258;12.518;2022-08-03T05:09:18;5.22;;;3.3099999999999996;;
18471;SDS011;9365;48.258;12.518;2022-08-03T05:14:46;6.24;;;3.5200000000000005;;
18471;SDS011;9365;48.258;12.518;2022-08-03T05:20:14;5.619999999999999;;;2.6900000000000004;;
18471;SDS011;9365;48.258;12.518;2022-08-03T05:25:42;4.459999999999999;;;2.5200000000000005;;
18471;SDS011;9365;48.258;12.518;2022-08-03T05:31:10;2.4;;;2.16;;
18471;SDS011;9365;48.258;12.518;2022-08-03T05:36:38;13.569999999999999;;;6.229999999999999;;
18471;SDS011;9365;48.258;12.518;2022-08-03T05:42:05;14.959999999999999;;;7.529999999999999;;
18471;SDS011;9365;48.258;12.518;2022-08-03T05:47:33;17.39;;;8.010000000000002;;
18471;SDS011;9365;48.258;12.518;2022-08-03T05:53:01;12.820000000000002;;;5.58;;
18471;SDS011;9365;48.258;12.518;2022-08-03T05:58:28;11.440000000000001;;;3.7199999999999998;;
18471;SDS011;9365;48.258;12.518;2022-08-03T06:03:56;6.09;;;3.17;;
18471;SDS011;9365;48.258;12.518;2022-08-03T06:09:24;5.11;;;2.82;;
18471;SDS011;9365;48.258;12.518;2022-08-03T06:14:52;3.8699999999999997;;;2.07;;
18471;SDS011;9365;48.258;12.518;2022-08-03T06:20:19;7.85;;;4.59;;
18471;SDS011;9365;48.258;12.518;2022-08-03T06:25:47;10.029999999999998;;;1.97;;
18471;SDS011;9365;48.258;12.518;2022-08-03T06:31:15;2.2300000000000004;;;1.9899999999999998;;
18471;SDS011;9365;48.258;12.518;2022-08-03T06:36:42;4.6000000000000005;;;1.9600000000000002;;
18471;SDS011;9365;48.258;12.518;2022-08-03T06:42:10;1.7;;;1.4499999999999997;;
18471;SDS011;9365;48.258;12.518;2022-08-03T06:47:38;2.65;;;2.1799999999999997;;
18471;SDS011;9365;48.258;12.518;2022-08-03T06:53:06;3.6100000000000003;;;1.89;;
18471;SDS011;9365;48.258;12.518;2022-08-03T06:58:34;5.2;;;1.9100000000000001;;
18471;SDS011;9365;48.258;12.518;2022-08-03T07:04:02;4.51;;;1.9100000000000001;;
18471;SDS011;9365;48.258;12.518;2022-08-03T07:09:30;4.65;;;2.15;;
18471;SDS011;9365;48.258;12.518;2022-08-03T07:14:58;3.2299999999999995;;;1.8499999999999996;;
18471;SDS011;9365;48.258;12.518;2022-08-03T07:20:26;4.03;;;2.0;;
18471;SDS011;9365;48.258;12.518;2022-08-03T07:25:54;4.64;;;1.8199999999999998;;
18471;SDS011;9365;48.258;12.518;2022-08-03T07:31:22;1.8200000000000003;;;1.48;;
18471;SDS011;9365;48.258;12.518;2022-08-03T07:36:49;4.4399999999999995;;;1.7;;
18471;SDS011;9365;48.258;12.518;2022-08-03T07:42:17;2.37;;;1.67;;
18471;SDS011;9365;48.258;12.518;2022-08-03T07:47:44;2.25;;;1.49;;
18471;SDS011;9365;48.258;12.518;2022-08-03T07:53:12;3.08;;;1.9300000000000002;;
18471;SDS011;9365;48.258;12.518;2022-08-03T07:58:40;3.13;;;1.8399999999999999;;
18471;SDS011;9365;48.258;12.518;2022-08-03T08:04:08;5.41;;;1.75;;
18471;SDS011;9365;48.258;12.518;2022-08-03T08:09:36;7.039999999999999;;;1.8699999999999999;;
18471;SDS011;9365;48.258;12.518;2022-08-03T08:15:05;3.0300000000000002;;;1.69;;
18471;SDS011;9365;48.258;12.518;2022-08-03T08:20:33;2.0200000000000005;;;1.35;;
18471;SDS011;9365;48.258;12.518;2022-08-03T08:26:02;1.8399999999999999;;;1.7;;
18471;SDS011;9365;48.258;12.518;2022-08-03T08:31:29;3.79;;;1.7899999999999998;;
18471;SDS011;9365;48.258;12.518;2022-08-03T08:36:57;6.7700000000000005;;;1.8;;
18471;SDS011;9365;48.258;12.518;2022-08-03T08:42:25;9.349999999999998;;;2.04;;
18471;SDS011;9365;48.258;12.518;2022-08-03T08:47:52;8.47;;;1.7900000000000003;;
18471;SDS011;9365;48.258;12.518;2022-08-03T08:53:22;3.5799999999999996;;;1.7099999999999997;;
18471;SDS011;9365;48.258;12.518;2022-08-03T08:58:53;8.52;;;2.1300000000000003;;
18471;SDS011;9365;48.258;12.518;2022-08-03T09:04:21;4.49;;;1.89;;
18471;SDS011;9365;48.258;12.518;2022-08-03T09:09:48;1.6199999999999999;;;1.52;;
18471;SDS011;9365;48.258;12.518;2022-08-03T09:15:17;3.35;;;1.5100000000000002;;
18471;SDS011;9365;48.258;12.518;2022-08-03T09:20:45;3.4899999999999998;;;1.4;;
18471;SDS011;9365;48.258;12.518;2022-08-03T09:26:19;3.13;;;1.4;;
18471;SDS011;9365;48.258;12.518;2022-08-03T09:31:46;1.3200000000000003;;;1.22;;
18471;SDS011;9365;48.258;12.518;2022-08-03T09:37:15;2.37;;;1.51;;
18471;SDS011;9365;48.258;12.518;2022-08-03T09:42:47;2.12;;;1.2600000000000002;;
18471;SDS011;9365;48.258;12.518;2022-08-03T09:48:23;1.42;;;1.37;;
18471;SDS011;9365;48.258;12.518;2022-08-03T09:53:51;1.95;;;1.51;;
18471;SDS011;9365;48.258;12.518;2022-08-03T09:59:22;1.73;;;1.2100000000000002;;
18471;SDS011;9365;48.258;12.518;2022-08-03T10:04:51;1.9;;;1.5;;
18471;SDS011;9365;48.258;12.518;2022-08-03T10:10:18;5.56;;;1.4600000000000002;;
18471;SDS011;9365;48.258;12.518;2022-08-03T10:15:46;2.95;;;1.36;;
18471;SDS011;9365;48.258;12.518;2022-08-03T10:21:15;1.47;;;1.23;;
18471;SDS011;9365;48.258;12.518;2022-08-03T10:26:43;4.92;;;1.3200000000000003;;
18471;SDS011;9365;48.258;12.518;2022-08-03T10:32:13;4.67;;;1.2600000000000002;;
18471;SDS011;9365;48.258;12.518;2022-08-03T10:37:43;2.58;;;1.0699999999999998;;
18471;SDS011;9365;48.258;12.518;2022-08-03T10:43:11;2.21;;;1.25;;
18471;SDS011;9365;48.258;12.518;2022-08-03T10:48:39;3.45;;;1.28;;
18471;SDS011;9365;48.258;12.518;2022-08-03T10:54:06;5.619999999999999;;;1.21;;
18471;SDS011;9365;48.258;12.518;2022-08-03T11:00:07;1.8599999999999999;;;1.0699999999999998;;
18471;SDS011;9365;48.258;12.518;2022-08-03T11:05:36;0.96;;;0.96;;
18471;SDS011;9365;48.258;12.518;2022-08-03T11:11:23;1.2;;;1.1099999999999999;;
18471;SDS011;9365;48.258;12.518;2022-08-03T11:17:05;0.86;;;0.86;;
18471;SDS011;9365;48.258;12.518;2022-08-03T11:22:47;0.9;;;0.9;;
18471;SDS011;9365;48.258;12.518;2022-08-03T11:28:30;1.9300000000000002;;;1.2599999999999998;;
18471;SDS011;9365;48.258;12.518;2022-08-03T11:34:03;1.28;;;1.1099999999999999;;
18471;SDS011;9365;48.258;12.518;2022-08-03T11:39:37;0.9200000000000002;;;0.8800000000000001;;
18471;SDS011;9365;48.258;12.518;2022-08-03T11:45:06;3.0599999999999996;;;1.2099999999999997;;
18471;SDS011;9365;48.258;12.518;2022-08-03T11:50:35;3.9200000000000004;;;0.96;;
18471;SDS011;9365;48.258;12.518;2022-08-03T11:56:03;5.64;;;1.19;;
18471;SDS011;9365;48.258;12.518;2022-08-03T12:01:30;1.7599999999999998;;;0.8800000000000001;;
18471;SDS011;9365;48.258;12.518;2022-08-03T12:06:59;1.3599999999999999;;;1.0;;
18471;SDS011;9365;48.258;12.518;2022-08-03T12:12:26;1.08;;;1.08;;
18471;SDS011;9365;48.258;12.518;2022-08-03T12:17:55;2.47;;;1.03;;
18471;SDS011;9365;48.258;12.518;2022-08-03T12:23:23;1.1;;;1.0699999999999998;;
18471;SDS011;9365;48.258;12.518;2022-08-03T12:28:53;1.01;;;0.8800000000000001;;
18471;SDS011;9365;48.258;12.518;2022-08-03T12:34:21;3.6;;;1.0;;
18471;SDS011;9365;48.258;12.518;2022-08-03T12:39:49;2.6599999999999997;;;0.93;;
18471;SDS011;9365;48.258;12.518;2022-08-03T12:45:17;1.0399999999999998;;;1.01;;
18471;SDS011;9365;48.258;12.518;2022-08-03T12:50:45;3.29;;;0.9399999999999998;;
18471;SDS011;9365;48.258;12.518;2022-08-03T12:56:12;3.7199999999999998;;;1.24;;
18471;SDS011;9365;48.258;12.518;2022-08-03T13:01:40;1.7399999999999998;;;1.0999999999999999;;
18471;SDS011;9365;48.258;12.518;2022-08-03T13:07:08;1.26;;;1.2099999999999997;;
18471;SDS011;9365;48.258;12.518;2022-08-03T13:12:44;2.1599999999999997;;;0.9200000000000002;;
18471;SDS011;9365;48.258;12.518;2022-08-03T13:18:12;3.6199999999999997;;;0.89;;
18471;SDS011;9365;48.258;12.518;2022-08-03T13:23:40;1.75;;;1.01;;
18471;SDS011;9365;48.258;12.518;2022-08-03T13:29:08;3.29;;;1.27;;
18471;SDS011;9365;48.258;12.518;2022-08-03T13:34:36;2.4800000000000004;;;1.08;;
18471;SDS011;9365;48.258;12.518;2022-08-03T13:40:05;1.52;;;1.4300000000000002;;
18471;SDS011;9365;48.258;12.518;2022-08-03T13:45:33;1.5700000000000003;;;1.15;;
18471;SDS011;9365;48.258;12.518;2022-08-03T13:51:01;3.04;;;0.96;;
18471;SDS011;9365;48.258;12.518;2022-08-03T13:56:28;1.32;;;1.2199999999999998;;
18471;SDS011;9365;48.258;12.518;2022-08-03T14:01:57;1.15;;;0.9800000000000001;;
18471;SDS011;9365;48.258;12.518;2022-08-03T14:07:24;1.2799999999999998;;;0.95;;
18471;SDS011;9365;48.258;12.518;2022-08-03T14:12:52;2.77;;;1.15;;
18471;SDS011;9365;48.258;12.518;2022-08-03T14:18:20;1.13;;;0.9899999999999999;;
18471;SDS011;9365;48.258;12.518;2022-08-03T14:23:47;1.51;;;1.36;;
18471;SDS011;9365;48.258;12.518;2022-08-03T14:29:15;1.1099999999999999;;;1.1099999999999999;;
18471;SDS011;9365;48.258;12.518;2022-08-03T14:34:43;2.89;;;0.9400000000000001;;
18471;SDS011;9365;48.258;12.518;2022-08-03T14:40:10;1.7799999999999998;;;1.0899999999999999;;
18471;SDS011;9365;48.258;12.518;2022-08-03T14:45:38;3.2599999999999993;;;1.0699999999999998;;
18471;SDS011;9365;48.258;12.518;2022-08-03T14:51:07;2.8899999999999997;;;1.2700000000000002;;
18471;SDS011;9365;48.258;12.518;2022-08-03T14:56:35;2.08;;;0.9;;
18471;SDS011;9365;48.258;12.518;2022-08-03T15:02:02;3.5199999999999996;;;1.27;;
18471;SDS011;9365;48.258;12.518;2022-08-03T15:07:30;1.28;;;1.2099999999999997;;
18471;SDS011;9365;48.258;12.518;2022-08-03T15:12:57;1.2499999999999998;;;1.2299999999999998;;
18471;SDS011;9365;48.258;12.518;2022-08-03T15:18:25;0.96;;;0.9400000000000001;;
18471;SDS011;9365;48.258;12.518;2022-08-03T15:23:53;1.5500000000000003;;;1.02;;
18471;SDS011;9365;48.258;12.518;2022-08-03T15:29:20;0.93;;;0.93;;
18471;SDS011;9365;48.258;12.518;2022-08-03T15:34:48;3.45;;;1.3000000000000003;;
18471;SDS011;9365;48.258;12.518;2022-08-03T15:40:16;1.48;;;1.23;;
18471;SDS011;9365;48.258;12.518;2022-08-03T15:45:43;1.2100000000000002;;;1.19;;
18471;SDS011;9365;48.258;12.518;2022-08-03T15:51:11;1.29;;;1.1700000000000004;;
18471;SDS011;9365;48.258;12.518;2022-08-03T15:56:38;1.8;;;0.96;;
18471;SDS011;9365;48.258;12.518;2022-08-03T16:02:06;3.4799999999999995;;;1.1099999999999999;;
18471;SDS011;9365;48.258;12.518;2022-08-03T16:07:34;1.2899999999999998;;;1.2199999999999998;;
18471;SDS011;9365;48.258;12.518;2022-08-03T16:13:02;1.33;;;1.33;;
18471;SDS011;9365;48.258;12.518;2022-08-03T16:18:30;1.81;;;1.18;;
18471;SDS011;9365;48.258;12.518;2022-08-03T16:23:58;2.7400000000000007;;;1.1800000000000002;;
18471;SDS011;9365;48.258;12.518;2022-08-03T16:29:26;2.3899999999999997;;;1.0799999999999998;;
18471;SDS011;9365;48.258;12.518;2022-08-03T16:34:53;0.9399999999999998;;;0.9199999999999999;;
18471;SDS011;9365;48.258;12.518;2022-08-03T16:40:21;3.34;;;1.46;;
18471;SDS011;9365;48.258;12.518;2022-08-03T16:45:49;2.19;;;1.24;;
18471;SDS011;9365;48.258;12.518;2022-08-03T16:51:17;4.3;;;1.65;;
18471;SDS011;9365;48.258;12.518;2022-08-03T16:56:44;1.3900000000000001;;;1.3000000000000003;;
18471;SDS011;9365;48.258;12.518;2022-08-03T17:02:14;4.01;;;1.33;;
18471;SDS011;9365;48.258;12.518;2022-08-03T17:07:45;2.68;;;1.44;;
18471;SDS011;9365;48.258;12.518;2022-08-03T17:13:13;1.1800000000000002;;;1.1400000000000001;;
18471;SDS011;9365;48.258;12.518;2022-08-03T17:18:43;1.36;;;1.1199999999999999;;
18471;SDS011;9365;48.258;12.518;2022-08-03T17:24:13;3.4299999999999997;;;1.3000000000000003;;
18471;SDS011;9365;48.258;12.518;2022-08-03T17:29:45;1.5599999999999998;;;1.5;;
18471;SDS011;9365;48.258;12.518;2022-08-03T17:35:13;1.2100000000000002;;;1.15;;
18471;SDS011;9365;48.258;12.518;2022-08-03T17:40:41;1.26;;;1.21;;
18471;SDS011;9365;48.258;12.518;2022-08-03T17:46:09;2.06;;;1.9199999999999995;;
18471;SDS011;9365;48.258;12.518;2022-08-03T17:51:38;1.3800000000000001;;;1.2500000000000002;;
18471;SDS011;9365;48.258;12.518;2022-08-03T17:57:08;1.5;;;1.35;;
18471;SDS011;9365;48.258;12.518;2022-08-03T18:02:39;1.7600000000000002;;;1.47;;
18471;SDS011;9365;48.258;12.518;2022-08-03T18:08:10;1.8800000000000001;;;1.58;;
18471;SDS011;9365;48.258;12.518;2022-08-03T18:13:39;2.0;;;1.59;;
18471;SDS011;9365;48.258;12.518;2022-08-03T18:19:06;1.6299999999999997;;;1.47;;
18471;SDS011;9365;48.258;12.518;2022-08-03T18:24:34;1.69;;;1.5000000000000002;;
18471;SDS011;9365;48.258;12.518;2022-08-03T18:30:02;3.05;;;1.5799999999999998;;
18471;SDS011;9365;48.258;12.518;2022-08-03T18:35:30;2.4;;;1.1999999999999997;;
18471;SDS011;9365;48.258;12.518;2022-08-03T18:40:59;2.13;;;1.31;;
18471;SDS011;9365;48.258;12.518;2022-08-03T18:46:32;1.3;;;1.23;;
18471;SDS011;9365;48.258;12.518;2022-08-03T18:52:04;1.86;;;1.6300000000000001;;
18471;SDS011;9365;48.258;12.518;2022-08-03T18:57:34;1.2699999999999998;;;1.22;;
18471;SDS011;9365;48.258;12.518;2022-08-03T19:03:03;2.19;;;1.31;;
18471;SDS011;9365;48.258;12.518;2022-08-03T19:08:37;2.9699999999999998;;;1.2799999999999998;;
18471;SDS011;9365;48.258;12.518;2022-08-03T19:14:07;2.1900000000000004;;;1.41;;
18471;SDS011;9365;48.258;12.518;2022-08-03T19:19:37;1.4200000000000002;;;1.2100000000000002;;
18471;SDS011;9365;48.258;12.518;2022-08-03T19:25:06;1.6700000000000004;;;1.41;;
18471;SDS011;9365;48.258;12.518;2022-08-03T19:30:34;2.9299999999999997;;;1.9600000000000002;;
18471;SDS011;9365;48.258;12.518;2022-08-03T19:36:02;1.6199999999999999;;;1.48;;
18471;SDS011;9365;48.258;12.518;2022-08-03T19:41:32;2.38;;;1.56;;
18471;SDS011;9365;48.258;12.518;2022-08-03T19:47:01;3.2299999999999995;;;1.98;;
18471;SDS011;9365;48.258;12.518;2022-08-03T19:52:33;3.4099999999999993;;;1.48;;
18471;SDS011;9365;48.258;12.518;2022-08-03T19:58:02;2.44;;;1.6;;
18471;SDS011;9365;48.258;12.518;2022-08-03T20:03:30;1.81;;;1.48;;
18471;SDS011;9365;48.258;12.518;2022-08-03T20:08:57;2.68;;;1.32;;
18471;SDS011;9365;48.258;12.518;2022-08-03T20:14:26;6.519999999999999;;;1.57;;
18471;SDS011;9365;48.258;12.518;2022-08-03T20:19:54;1.67;;;1.3699999999999999;;
18471;SDS011;9365;48.258;12.518;2022-08-03T20:25:24;1.65;;;1.4;;
18471;SDS011;9365;48.258;12.518;2022-08-03T20:30:53;1.95;;;1.3800000000000001;;
18471;SDS011;9365;48.258;12.518;2022-08-03T20:36:21;1.9900000000000002;;;1.6;;
18471;SDS011;9365;48.258;12.518;2022-08-03T20:41:48;2.0100000000000002;;;1.5;;
18471;SDS011;9365;48.258;12.518;2022-08-03T20:47:16;3.3699999999999997;;;1.78;;
18471;SDS011;9365;48.258;12.518;2022-08-03T20:52:44;2.1;;;1.9;;
18471;SDS011;9365;48.258;12.518;2022-08-03T20:58:11;2.0;;;1.6599999999999997;;
18471;SDS011;9365;48.258;12.518;2022-08-03T21:03:39;1.54;;;1.34;;
18471;SDS011;9365;48.258;12.518;2022-08-03T21:09:07;2.84;;;1.5399999999999998;;
18471;SDS011;9365;48.258;12.518;2022-08-03T21:14:36;1.48;;;1.41;;
18471;SDS011;9365;48.258;12.518;2022-08-03T21:20:05;3.56;;;1.53;;
18471;SDS011;9365;48.258;12.518;2022-08-03T21:25:33;3.8300000000000005;;;2.0200000000000005;;
18471;SDS011;9365;48.258;12.518;2022-08-03T21:31:00;4.840000000000001;;;1.8;;
18471;SDS011;9365;48.258;12.518;2022-08-03T21:36:29;9.78;;;1.72;;
18471;SDS011;9365;48.258;12.518;2022-08-03T21:41:57;4.0;;;1.9;;
18471;SDS011;9365;48.258;12.518;2022-08-03T21:47:24;2.6700000000000004;;;2.1400000000000006;;
18471;SDS011;9365;48.258;12.518;2022-08-03T21:52:52;6.05;;;2.49;;
18471;SDS011;9365;48.258;12.518;2022-08-03T21:58:20;3.63;;;1.9899999999999998;;
18471;SDS011;9365;48.258;12.518;2022-08-03T22:03:51;10.91;;;2.33;;
18471;SDS011;9365;48.258;12.518;2022-08-03T22:09:19;6.779999999999999;;;2.46;;
18471;SDS011;9365;48.258;12.518;2022-08-03T22:14:47;4.380000000000001;;;2.2;;
18471;SDS011;9365;48.258;12.518;2022-08-03T22:20:15;4.98;;;2.1800000000000006;;
18471;SDS011;9365;48.258;12.518;2022-08-03T22:25:43;4.01;;;2.1900000000000004;;
18471;SDS011;9365;48.258;12.518;2022-08-03T22:31:11;3.28;;;1.98;;
18471;SDS011;9365;48.258;12.518;2022-08-03T22:36:39;2.4299999999999997;;;2.17;;
18471;SDS011;9365;48.258;12.518;2022-08-03T22:42:07;8.86;;;2.35;;
18471;SDS011;9365;48.258;12.518;2022-08-03T22:47:35;3.8;;;2.09;;
18471;SDS011;9365;48.258;12.518;2022-08-03T22:53:03;4.09;;;2.04;;
18471;SDS011;9365;48.258;12.518;2022-08-03T22:58:32;3.56;;;2.23;;
18471;SDS011;9365;48.258;12.518;2022-08-03T23:04:01;5.97;;;2.6;;
18471;SDS011;9365;48.258;12.518;2022-08-03T23:09:29;9.959999999999999;;;2.71;;
18471;SDS011;9365;48.258;12.518;2022-08-03T23:14:59;10.370000000000001;;;2.5900000000000003;;
18471;SDS011;9365;48.258;12.518;2022-08-03T23:20:27;3.7399999999999993;;;2.29;;
18471;SDS011;9365;48.258;12.518;2022-08-03T23:25:55;6.43;;;2.2399999999999998;;
18471;SDS011;9365;48.258;12.518;2022-08-03T23:31:24;3.5799999999999996;;;2.1;;
18471;SDS011;9365;48.258;12.518;2022-08-03T23:36:53;3.7;;;1.7599999999999998;;
18471;SDS011;9365;48.258;12.518;2022-08-03T23:42:21;3.46;;;1.6599999999999997;;
18471;SDS011;9365;48.258;12.518;2022-08-03T23:47:50;6.720000000000001;;;2.3;;
18471;SDS011;9365;48.258;12.518;2022-08-03T23:53:20;4.139999999999999;;;1.8199999999999998;;
18471;SDS011;9365;48.258;12.518;2022-08-03T23:58:55;5.51;;;1.58;;
